PWSweather.com
Personal Weather Stations
Station Observations
IDALMACI22
Prvic LukaHR

Prvic LukaHR

Lat: 43.72542191, Lon: 15.7968483

Elevation: 20

Station Type: ws 2300

Latest ConditionsUpdated 9:40:05 PM GMT+01:01 Monday, Sep 23, 2019
Currently Today's Max Today's Min Today's Average
Temperature 63.1°F17.3°C 74.1°F23.4°C 63.1°F17.3°C 69.6°F20.9°C
Dew Point 59.9°F15.5°C 65.2°F18.4°C 53.7°F12.1°C 61.2°F16.2°C
Winds 1.8 mph E2.9 kmh E 14.1 mph -22.7 kmh - - 3.5 mph 5.6 kmh
Wind Gusts 2.2 mph3.5 kmh 14.1 mph22.7 kmh - -
Humidity 89% 89% 58% 75%
Pressure 29.73 in1006.8 mb 29.90 in1012.5 mb 29.72 in1006.4 mb -
Precipitation - 0.33 in8.4 mm - -
Hour Temp Dew Point Humidity Winds Wind Gusts Pressure Precip Precip Rate Daily Precip Total
09:40 PM 63.1°F17.3°C 59.9°F15.5°C 89% 1.8 mph E2.9 kmh E 2.2 mph3.5 kmh 29.73 in1006.8 mb 0.14 in3.6 mm 0.00 in0.0 mm 0.33 in8.4 mm
09:30 PM 63.3°F17.4°C 60.1°F15.6°C 89% 4.9 mph SE7.9 kmh SE 5.8 mph9.3 kmh 29.73 in1006.8 mb 0.17 in4.3 mm 0.00 in0.0 mm 0.31 in7.9 mm
09:20 PM 63.3°F17.4°C 60.1°F15.6°C 89% 0.9 mph S1.4 kmh S 9.6 mph15.4 kmh 29.73 in1006.8 mb 0.19 in4.8 mm 0.00 in0.0 mm 0.31 in7.9 mm
09:10 PM 63.3°F17.4°C 60.1°F15.6°C 89% 6.0 mph S9.7 kmh S 6.0 mph9.7 kmh 29.72 in1006.4 mb 0.20 in5.1 mm 0.36 in9.1 mm 0.29 in7.4 mm
09:00 PM 63.7°F17.6°C 60.1°F15.6°C 88% Calm Calm 0.9 mph1.4 kmh 29.75 in1007.5 mb 0.14 in3.6 mm 0.00 in0.0 mm 0.20 in5.1 mm
08:50 PM 64.0°F17.8°C 60.5°F15.8°C 88% 0.9 mph NW1.4 kmh NW 1.3 mph2.1 kmh 29.76 in1007.8 mb 0.14 in3.6 mm 0.12 in3.0 mm 0.20 in5.1 mm
08:40 PM 64.8°F18.2°C 61.2°F16.2°C 88% 1.3 mph N2.1 kmh N 2.9 mph4.7 kmh 29.76 in1007.8 mb 0.12 in3.0 mm 0.12 in3.0 mm 0.18 in4.6 mm
08:30 PM 65.1°F18.4°C 61.5°F16.4°C 88% 2.9 mph N4.7 kmh N 2.9 mph4.7 kmh 29.76 in1007.8 mb 0.10 in2.5 mm 0.12 in3.0 mm 0.14 in3.6 mm
08:20 PM 65.5°F18.6°C 61.8°F16.6°C 88% Calm Calm -- 29.76 in1007.8 mb 0.08 in2.0 mm 0.24 in6.1 mm 0.12 in3.0 mm
08:10 PM 66.2°F19.0°C 62.5°F16.9°C 88% Calm Calm -- 29.75 in1007.5 mb 0.04 in1.0 mm 0.12 in3.0 mm 0.08 in2.0 mm
08:00 PM 66.7°F19.3°C 63.0°F17.2°C 88% Calm Calm -- 29.75 in1007.5 mb 0.02 in0.5 mm 0.00 in0.0 mm 0.06 in1.5 mm
07:50 PM 67.1°F19.5°C 63.4°F17.4°C 88% Calm Calm 2.0 mph3.2 kmh 29.75 in1007.5 mb 0.02 in0.5 mm 0.00 in0.0 mm 0.06 in1.5 mm
07:40 PM 67.8°F19.9°C 64.1°F17.8°C 88% Calm Calm 4.0 mph6.4 kmh 29.75 in1007.5 mb 0.04 in1.0 mm 0.12 in3.0 mm 0.06 in1.5 mm
07:30 PM 68.7°F20.4°C 64.7°F18.2°C 87% Calm Calm -- 29.75 in1007.5 mb 0.02 in0.5 mm 0.00 in0.0 mm 0.04 in1.0 mm
07:20 PM 68.7°F20.4°C 64.7°F18.2°C 87% Calm Calm -- 29.73 in1006.8 mb 0.02 in0.5 mm 0.00 in0.0 mm 0.04 in1.0 mm
07:10 PM 68.9°F20.5°C 64.8°F18.2°C 87% Calm Calm -- 29.72 in1006.4 mb 0.04 in1.0 mm 0.00 in0.0 mm 0.04 in1.0 mm
07:00 PM 68.9°F20.5°C 64.5°F18.1°C 86% Calm Calm -- 29.73 in1006.8 mb 0.04 in1.0 mm 0.00 in0.0 mm 0.04 in1.0 mm
06:50 PM 69.1°F20.6°C 64.7°F18.2°C 86% Calm Calm -- 29.73 in1006.8 mb 0.04 in1.0 mm 0.12 in3.0 mm 0.04 in1.0 mm
06:40 PM 69.6°F20.9°C 64.5°F18.1°C 84% Calm Calm -- 29.73 in1006.8 mb 0.02 in0.5 mm 0.00 in0.0 mm 0.02 in0.5 mm
06:30 PM 69.6°F20.9°C 64.5°F18.1°C 84% Calm Calm -- 29.73 in1006.8 mb 0.02 in0.5 mm 0.00 in0.0 mm 0.02 in0.5 mm
06:20 PM 69.6°F20.9°C 64.5°F18.1°C 84% Calm Calm 6.5 mph10.5 kmh 29.73 in1006.8 mb 0.02 in0.5 mm 0.12 in3.0 mm 0.02 in0.5 mm
06:10 PM 70.0°F21.1°C 64.5°F18.1°C 83% Calm Calm 3.1 mph5.0 kmh 29.73 in1006.8 mb 0.00 in0.0 mm 0.00 in0.0 mm 0.00 in0.0 mm
06:00 PM 70.5°F21.4°C 65.1°F18.4°C 83% Calm Calm 3.4 mph5.5 kmh 29.73 in1006.8 mb 0.00 in0.0 mm 0.00 in0.0 mm 0.00 in0.0 mm
05:50 PM 70.5°F21.4°C 65.1°F18.4°C 83% 3.1 mph S5.0 kmh S 10.3 mph16.6 kmh 29.73 in1006.8 mb 0.00 in0.0 mm 0.00 in0.0 mm 0.00 in0.0 mm
05:40 PM 70.7°F21.5°C 65.2°F18.4°C 83% 10.3 mph SE16.6 kmh SE 10.3 mph16.6 kmh 29.72 in1006.4 mb 0.00 in0.0 mm 0.00 in0.0 mm 0.00 in0.0 mm
05:30 PM 70.7°F21.5°C 65.2°F18.4°C 83% 7.6 mph SE12.2 kmh SE 9.6 mph15.4 kmh 29.72 in1006.4 mb 0.00 in0.0 mm 0.00 in0.0 mm 0.00 in0.0 mm
05:20 PM 70.7°F21.5°C 65.2°F18.4°C 83% 8.5 mph SSE13.7 kmh SSE 11.9 mph19.2 kmh 29.73 in1006.8 mb 0.00 in0.0 mm 0.00 in0.0 mm 0.00 in0.0 mm
05:10 PM 70.7°F21.5°C 65.2°F18.4°C 83% 6.3 mph S10.1 kmh S 10.7 mph17.2 kmh 29.72 in1006.4 mb 0.00 in0.0 mm 0.00 in0.0 mm 0.00 in0.0 mm
05:00 PM 70.7°F21.5°C 64.9°F18.3°C 82% 10.7 mph SE17.2 kmh SE 13.6 mph21.9 kmh 29.73 in1006.8 mb 0.00 in0.0 mm 0.00 in0.0 mm 0.00 in0.0 mm
04:50 PM 70.9°F21.6°C 65.1°F18.4°C 82% 13.6 mph SE21.9 kmh SE 13.6 mph21.9 kmh 29.73 in1006.8 mb 0.00 in0.0 mm 0.00 in0.0 mm 0.00 in0.0 mm
04:40 PM 70.9°F21.6°C 64.7°F18.2°C 81% 10.5 mph SSE16.9 kmh SSE 10.5 mph16.9 kmh 29.73 in1006.8 mb 0.00 in0.0 mm 0.00 in0.0 mm 0.00 in0.0 mm
04:30 PM 70.9°F21.6°C 64.7°F18.2°C 81% 3.4 mph SE5.5 kmh SE 12.3 mph19.8 kmh 29.73 in1006.8 mb 0.00 in0.0 mm 0.00 in0.0 mm 0.00 in0.0 mm
04:20 PM 71.2°F21.8°C 64.4°F18.0°C 79% 6.3 mph S10.1 kmh S 6.9 mph11.1 kmh 29.75 in1007.5 mb 0.00 in0.0 mm 0.00 in0.0 mm 0.00 in0.0 mm
04:10 PM 71.2°F21.8°C 64.0°F17.8°C 78% 6.0 mph SE9.7 kmh SE 14.1 mph22.7 kmh 29.75 in1007.5 mb 0.00 in0.0 mm 0.00 in0.0 mm 0.00 in0.0 mm
04:00 PM 71.4°F21.9°C 64.2°F17.9°C 78% 14.1 mph SSE22.7 kmh SSE 14.1 mph22.7 kmh 29.74 in1007.1 mb 0.00 in0.0 mm 0.00 in0.0 mm 0.00 in0.0 mm
03:50 PM 71.4°F21.9°C 63.8°F17.7°C 77% 6.5 mph SE10.5 kmh SE 10.7 mph17.2 kmh 29.75 in1007.5 mb 0.00 in0.0 mm 0.00 in0.0 mm 0.00 in0.0 mm
03:40 PM 71.8°F22.1°C 63.8°F17.7°C 76% 5.6 mph S9.0 kmh S 13.2 mph21.2 kmh 29.75 in1007.5 mb 0.00 in0.0 mm 0.00 in0.0 mm 0.00 in0.0 mm
03:30 PM 72.1°F22.3°C 63.8°F17.7°C 75% 5.1 mph S8.2 kmh S 5.8 mph9.3 kmh 29.74 in1007.1 mb 0.00 in0.0 mm 0.00 in0.0 mm 0.00 in0.0 mm
03:20 PM 72.5°F22.5°C 64.1°F17.8°C 75% 5.8 mph S9.3 kmh S 8.7 mph14.0 kmh 29.75 in1007.5 mb 0.00 in0.0 mm 0.00 in0.0 mm 0.00 in0.0 mm
03:10 PM 73.0°F22.8°C 64.7°F18.2°C 75% 7.6 mph SSE12.2 kmh SSE 11.4 mph18.3 kmh 29.75 in1007.5 mb 0.00 in0.0 mm 0.00 in0.0 mm 0.00 in0.0 mm
03:00 PM 73.2°F22.9°C 64.8°F18.2°C 75% 1.6 mph SSE2.6 kmh SSE 5.1 mph8.2 kmh 29.75 in1007.5 mb 0.00 in0.0 mm 0.00 in0.0 mm 0.00 in0.0 mm
02:50 PM 73.2°F22.9°C 64.5°F18.1°C 74% 4.9 mph SSE7.9 kmh SSE 11.9 mph19.2 kmh 29.75 in1007.5 mb 0.00 in0.0 mm 0.00 in0.0 mm 0.00 in0.0 mm
02:40 PM 73.4°F23.0°C 64.7°F18.2°C 74% 9.4 mph SSE15.1 kmh SSE 11.9 mph19.2 kmh 29.76 in1007.8 mb 0.00 in0.0 mm 0.00 in0.0 mm 0.00 in0.0 mm
02:30 PM 73.2°F22.9°C 64.5°F18.1°C 74% 4.9 mph SSE7.9 kmh SSE 5.8 mph9.3 kmh 29.77 in1008.1 mb 0.00 in0.0 mm 0.00 in0.0 mm 0.00 in0.0 mm
02:20 PM 73.0°F22.8°C 64.7°F18.2°C 75% 5.8 mph SE9.3 kmh SE 11.9 mph19.2 kmh 29.77 in1008.1 mb 0.00 in0.0 mm 0.00 in0.0 mm 0.00 in0.0 mm
02:10 PM 72.7°F22.6°C 63.9°F17.7°C 74% 9.4 mph SE15.1 kmh SE 9.4 mph15.1 kmh 29.76 in1007.8 mb 0.00 in0.0 mm 0.00 in0.0 mm 0.00 in0.0 mm
02:00 PM 72.9°F22.7°C 64.5°F18.1°C 75% 9.2 mph SSE14.8 kmh SSE 10.3 mph16.6 kmh 29.77 in1008.1 mb 0.00 in0.0 mm 0.00 in0.0 mm 0.00 in0.0 mm
01:50 PM 73.2°F22.9°C 64.5°F18.1°C 74% 10.3 mph SE16.6 kmh SE 10.3 mph16.6 kmh 29.78 in1008.5 mb 0.00 in0.0 mm 0.00 in0.0 mm 0.00 in0.0 mm
01:40 PM 73.4°F23.0°C 64.7°F18.2°C 74% 7.6 mph SSE12.2 kmh SSE 10.7 mph17.2 kmh 29.78 in1008.5 mb 0.00 in0.0 mm 0.00 in0.0 mm 0.00 in0.0 mm
01:30 PM 73.2°F22.9°C 64.5°F18.1°C 74% 10.7 mph SSE17.2 kmh SSE 13.0 mph20.9 kmh 29.77 in1008.1 mb 0.00 in0.0 mm 0.00 in0.0 mm 0.00 in0.0 mm
01:20 PM 73.2°F22.9°C 64.5°F18.1°C 74% 13.0 mph SSE20.9 kmh SSE 13.0 mph20.9 kmh 29.78 in1008.5 mb 0.00 in0.0 mm 0.00 in0.0 mm 0.00 in0.0 mm
01:10 PM 73.0°F22.8°C 64.3°F17.9°C 74% 9.2 mph SSE14.8 kmh SSE 9.2 mph14.8 kmh 29.78 in1008.5 mb 0.00 in0.0 mm 0.00 in0.0 mm 0.00 in0.0 mm
01:00 PM 72.3°F22.4°C 63.6°F17.6°C 74% 8.9 mph SE14.3 kmh SE 13.6 mph21.9 kmh 29.78 in1008.5 mb 0.00 in0.0 mm 0.00 in0.0 mm 0.00 in0.0 mm
12:50 PM 72.3°F22.4°C 63.6°F17.6°C 75% 13.6 mph SSE21.9 kmh SSE 13.6 mph21.9 kmh 29.78 in1008.5 mb 0.00 in0.0 mm 0.00 in0.0 mm 0.00 in0.0 mm
12:40 PM 72.3°F22.4°C 63.6°F17.6°C 74% 7.8 mph SE12.6 kmh SE 8.5 mph13.7 kmh 29.78 in1008.5 mb 0.00 in0.0 mm 0.00 in0.0 mm 0.00 in0.0 mm
12:30 PM 72.3°F22.4°C 63.6°F17.6°C 74% 3.4 mph SE5.5 kmh SE 9.4 mph15.1 kmh 29.79 in1008.8 mb 0.00 in0.0 mm 0.00 in0.0 mm 0.00 in0.0 mm
12:20 PM 72.5°F22.5°C 63.8°F17.7°C 74% 4.0 mph S6.4 kmh S 9.6 mph15.4 kmh 29.80 in1009.1 mb 0.00 in0.0 mm 0.00 in0.0 mm 0.00 in0.0 mm
12:10 PM 72.5°F22.5°C 63.4°F17.4°C 73% 4.5 mph SSE7.2 kmh SSE 13.0 mph20.9 kmh 29.80 in1009.1 mb 0.00 in0.0 mm 0.00 in0.0 mm 0.00 in0.0 mm
12:00 PM 72.9°F22.7°C 63.7°F17.6°C 73% 8.3 mph SE13.4 kmh SE 11.2 mph18.0 kmh 29.81 in1009.5 mb 0.00 in0.0 mm 0.00 in0.0 mm 0.00 in0.0 mm
11:50 AM 73.4°F23.0°C 63.9°F17.7°C 72% 11.2 mph ESE18.0 kmh ESE 11.2 mph18.0 kmh 29.81 in1009.5 mb 0.00 in0.0 mm 0.00 in0.0 mm 0.00 in0.0 mm
11:40 AM 73.9°F23.3°C 64.4°F18.0°C 72% 11.2 mph SE18.0 kmh SE 11.2 mph18.0 kmh 29.81 in1009.5 mb 0.00 in0.0 mm 0.00 in0.0 mm 0.00 in0.0 mm
11:30 AM 73.6°F23.1°C 63.7°F17.6°C 71% 6.0 mph SE9.7 kmh SE 9.2 mph14.8 kmh 29.81 in1009.5 mb 0.00 in0.0 mm 0.00 in0.0 mm 0.00 in0.0 mm
11:20 AM 73.8°F23.2°C 63.5°F17.5°C 70% 6.9 mph SSE11.1 kmh SSE 6.9 mph11.1 kmh 29.82 in1009.8 mb 0.00 in0.0 mm 0.00 in0.0 mm 0.00 in0.0 mm
11:10 AM 73.6°F23.1°C 63.7°F17.6°C 71% 4.5 mph S7.2 kmh S 8.3 mph13.4 kmh 29.82 in1009.8 mb 0.00 in0.0 mm 0.00 in0.0 mm 0.00 in0.0 mm
11:00 AM 73.8°F23.2°C 63.8°F17.7°C 71% 8.3 mph SE13.4 kmh SE 8.7 mph14.0 kmh 29.83 in1010.2 mb 0.00 in0.0 mm 0.00 in0.0 mm 0.00 in0.0 mm
10:50 AM 73.8°F23.2°C 63.8°F17.7°C 71% 8.7 mph SSE14.0 kmh SSE 11.0 mph17.7 kmh 29.82 in1009.8 mb 0.00 in0.0 mm 0.00 in0.0 mm 0.00 in0.0 mm
10:40 AM 73.9°F23.3°C 63.6°F17.6°C 70% 11.0 mph SE17.7 kmh SE 11.0 mph17.7 kmh 29.82 in1009.8 mb 0.00 in0.0 mm 0.00 in0.0 mm 0.00 in0.0 mm
10:30 AM 74.1°F23.4°C 63.8°F17.7°C 70% Calm Calm 2.9 mph4.7 kmh 29.83 in1010.2 mb 0.00 in0.0 mm 0.00 in0.0 mm 0.00 in0.0 mm
10:20 AM 73.0°F22.8°C 63.5°F17.5°C 72% 2.9 mph SSE4.7 kmh SSE 2.9 mph4.7 kmh 29.83 in1010.2 mb 0.00 in0.0 mm 0.00 in0.0 mm 0.00 in0.0 mm
10:10 AM 72.1°F22.3°C 62.3°F16.8°C 71% Calm Calm 5.1 mph8.2 kmh 29.83 in1010.2 mb 0.00 in0.0 mm 0.00 in0.0 mm 0.00 in0.0 mm
10:00 AM 71.8°F22.1°C 62.3°F16.8°C 72% 2.9 mph SE4.7 kmh SE 3.8 mph6.1 kmh 29.83 in1010.2 mb 0.00 in0.0 mm 0.00 in0.0 mm 0.00 in0.0 mm
09:50 AM 71.2°F21.8°C 61.7°F16.5°C 72% 2.5 mph SSE4.0 kmh SSE 2.5 mph4.0 kmh 29.83 in1010.2 mb 0.00 in0.0 mm 0.00 in0.0 mm 0.00 in0.0 mm
09:40 AM 71.1°F21.7°C 61.6°F16.4°C 72% 2.5 mph SSE4.0 kmh SSE 3.6 mph5.8 kmh 29.83 in1010.2 mb 0.00 in0.0 mm 0.00 in0.0 mm 0.00 in0.0 mm
09:30 AM 71.1°F21.7°C 61.6°F16.4°C 72% 1.8 mph SSE2.9 kmh SSE 2.2 mph3.5 kmh 29.84 in1010.5 mb 0.00 in0.0 mm 0.00 in0.0 mm 0.00 in0.0 mm
09:20 AM 71.2°F21.8°C 62.1°F16.7°C 73% Calm Calm 3.8 mph6.1 kmh 29.84 in1010.5 mb 0.00 in0.0 mm 0.00 in0.0 mm 0.00 in0.0 mm
09:10 AM 70.3°F21.3°C 62.0°F16.7°C 75% 3.8 mph SE6.1 kmh SE 3.8 mph6.1 kmh 29.85 in1010.8 mb 0.00 in0.0 mm 0.00 in0.0 mm 0.00 in0.0 mm
09:00 AM 69.4°F20.8°C 61.1°F16.2°C 75% 1.1 mph SSE1.8 kmh SSE 2.9 mph4.7 kmh 29.85 in1010.8 mb 0.00 in0.0 mm 0.00 in0.0 mm 0.00 in0.0 mm
08:50 AM 68.9°F20.5°C 61.0°F16.1°C 76% Calm Calm -- 29.85 in1010.8 mb 0.00 in0.0 mm 0.00 in0.0 mm 0.00 in0.0 mm
08:40 AM 68.7°F20.4°C 60.8°F16.0°C 76% Calm Calm 2.5 mph4.0 kmh 29.85 in1010.8 mb 0.00 in0.0 mm 0.00 in0.0 mm 0.00 in0.0 mm
08:30 AM 68.5°F20.3°C 60.7°F15.9°C 76% 2.0 mph SE3.2 kmh SE 4.7 mph7.6 kmh 29.85 in1010.8 mb 0.00 in0.0 mm 0.00 in0.0 mm 0.00 in0.0 mm
08:20 AM 68.2°F20.1°C 60.7°F15.9°C 77% 4.7 mph SE7.6 kmh SE 5.1 mph8.2 kmh 29.85 in1010.8 mb 0.00 in0.0 mm 0.00 in0.0 mm 0.00 in0.0 mm
08:10 AM 67.8°F19.9°C 61.1°F16.2°C 79% 1.3 mph SE2.1 kmh SE 5.8 mph9.3 kmh 29.85 in1010.8 mb 0.00 in0.0 mm 0.00 in0.0 mm 0.00 in0.0 mm
08:00 AM 67.6°F19.8°C 61.0°F16.1°C 79% 5.8 mph SSE9.3 kmh SSE 5.8 mph9.3 kmh 29.85 in1010.8 mb 0.00 in0.0 mm 0.00 in0.0 mm 0.00 in0.0 mm
07:50 AM 67.6°F19.8°C 61.3°F16.3°C 80% 2.0 mph SSE3.2 kmh SSE 2.5 mph4.0 kmh 29.84 in1010.5 mb 0.00 in0.0 mm 0.00 in0.0 mm 0.00 in0.0 mm
07:40 AM 67.3°F19.6°C 61.0°F16.1°C 80% 2.0 mph ESE3.2 kmh ESE 5.4 mph8.7 kmh 29.85 in1010.8 mb 0.00 in0.0 mm 0.00 in0.0 mm 0.00 in0.0 mm
07:30 AM 66.7°F19.3°C 60.4°F15.8°C 80% Calm Calm 1.8 mph2.9 kmh 29.85 in1010.8 mb 0.00 in0.0 mm 0.00 in0.0 mm 0.00 in0.0 mm
07:20 AM 66.7°F19.3°C 60.4°F15.8°C 80% 1.8 mph SE2.9 kmh SE 6.3 mph10.1 kmh 29.85 in1010.8 mb 0.00 in0.0 mm 0.00 in0.0 mm 0.00 in0.0 mm
07:10 AM 66.6°F19.2°C 60.6°F15.9°C 81% 6.3 mph SE10.1 kmh SE 6.3 mph10.1 kmh 29.84 in1010.5 mb 0.00 in0.0 mm 0.00 in0.0 mm 0.00 in0.0 mm
07:00 AM 66.6°F19.2°C 60.6°F15.9°C 81% 2.9 mph SE4.7 kmh SE 4.5 mph7.2 kmh 29.84 in1010.5 mb 0.00 in0.0 mm 0.00 in0.0 mm 0.00 in0.0 mm
06:50 AM 66.6°F19.2°C 60.9°F16.1°C 82% 1.6 mph SE2.6 kmh SE 2.5 mph4.0 kmh 29.84 in1010.5 mb 0.00 in0.0 mm 0.00 in0.0 mm 0.00 in0.0 mm
06:40 AM 66.4°F19.1°C 60.7°F15.9°C 82% 2.5 mph SE4.0 kmh SE 2.7 mph4.3 kmh 29.84 in1010.5 mb 0.00 in0.0 mm 0.00 in0.0 mm 0.00 in0.0 mm
06:30 AM 66.6°F19.2°C 61.2°F16.2°C 83% 2.0 mph SE3.2 kmh SE 2.5 mph4.0 kmh 29.84 in1010.5 mb 0.00 in0.0 mm 0.00 in0.0 mm 0.00 in0.0 mm
06:20 AM 66.6°F19.2°C 61.2°F16.2°C 83% 2.5 mph SSE4.0 kmh SSE 2.5 mph4.0 kmh 29.83 in1010.2 mb 0.00 in0.0 mm 0.00 in0.0 mm 0.00 in0.0 mm
06:10 AM 66.4°F19.1°C 61.1°F16.2°C 83% 1.3 mph SSE2.1 kmh SSE 2.5 mph4.0 kmh 29.84 in1010.5 mb 0.00 in0.0 mm 0.00 in0.0 mm 0.00 in0.0 mm
06:00 AM 66.4°F19.1°C 60.7°F15.9°C 82% 2.5 mph SE4.0 kmh SE 4.5 mph7.2 kmh 29.84 in1010.5 mb 0.00 in0.0 mm 0.00 in0.0 mm 0.00 in0.0 mm
05:50 AM 66.2°F19.0°C 60.5°F15.8°C 82% Calm Calm 2.0 mph3.2 kmh 29.84 in1010.5 mb 0.00 in0.0 mm 0.00 in0.0 mm 0.00 in0.0 mm
05:40 AM 66.4°F19.1°C 60.1°F15.6°C 80% 2.0 mph SSE3.2 kmh SSE 2.0 mph3.2 kmh 29.84 in1010.5 mb 0.00 in0.0 mm 0.00 in0.0 mm 0.00 in0.0 mm
05:30 AM 66.6°F19.2°C 60.3°F15.7°C 80% 2.0 mph SSE3.2 kmh SSE 2.0 mph3.2 kmh 29.84 in1010.5 mb 0.00 in0.0 mm 0.00 in0.0 mm 0.00 in0.0 mm
05:20 AM 66.7°F19.3°C 60.1°F15.6°C 79% Calm Calm 2.5 mph4.0 kmh 29.84 in1010.5 mb 0.00 in0.0 mm 0.00 in0.0 mm 0.00 in0.0 mm
05:10 AM 66.9°F19.4°C 59.9°F15.5°C 78% 2.5 mph ESE4.0 kmh ESE 3.8 mph6.1 kmh 29.84 in1010.5 mb 0.00 in0.0 mm 0.00 in0.0 mm 0.00 in0.0 mm
05:00 AM 67.6°F19.8°C 59.8°F15.4°C 76% Calm Calm 1.6 mph2.6 kmh 29.84 in1010.5 mb 0.00 in0.0 mm 0.00 in0.0 mm 0.00 in0.0 mm
04:50 AM 68.7°F20.4°C 60.1°F15.6°C 74% 1.6 mph SE2.6 kmh SE 10.7 mph17.2 kmh 29.85 in1010.8 mb 0.00 in0.0 mm 0.00 in0.0 mm 0.00 in0.0 mm
04:40 AM 69.1°F20.6°C 60.0°F15.6°C 73% 10.7 mph SE17.2 kmh SE 10.7 mph17.2 kmh 29.85 in1010.8 mb 0.00 in0.0 mm 0.00 in0.0 mm 0.00 in0.0 mm
04:30 AM 69.6°F20.9°C 59.8°F15.4°C 71% 1.6 mph SSE2.6 kmh SSE 6.9 mph11.1 kmh 29.85 in1010.8 mb 0.00 in0.0 mm 0.00 in0.0 mm 0.00 in0.0 mm
04:20 AM 70.0°F21.1°C 59.3°F15.2°C 69% 6.3 mph SE10.1 kmh SE 9.2 mph14.8 kmh 29.85 in1010.8 mb 0.00 in0.0 mm 0.00 in0.0 mm 0.00 in0.0 mm
04:10 AM 70.2°F21.2°C 58.6°F14.8°C 67% 2.9 mph SE4.7 kmh SE 6.9 mph11.1 kmh 29.85 in1010.8 mb 0.00 in0.0 mm 0.00 in0.0 mm 0.00 in0.0 mm
04:00 AM 70.2°F21.2°C 58.2°F14.6°C 66% 2.5 mph SSE4.0 kmh SSE 3.8 mph6.1 kmh 29.85 in1010.8 mb 0.00 in0.0 mm 0.00 in0.0 mm 0.00 in0.0 mm
03:50 AM 69.6°F20.9°C 56.9°F13.8°C 64% Calm Calm 2.2 mph3.5 kmh 29.85 in1010.8 mb 0.00 in0.0 mm 0.00 in0.0 mm 0.00 in0.0 mm
03:40 AM 69.4°F20.8°C 56.7°F13.7°C 64% Calm Calm -- 29.85 in1010.8 mb 0.00 in0.0 mm 0.00 in0.0 mm 0.00 in0.0 mm
03:30 AM 69.1°F20.6°C 55.5°F13.1°C 62% Calm Calm -- 29.85 in1010.8 mb 0.00 in0.0 mm 0.00 in0.0 mm 0.00 in0.0 mm
03:20 AM 69.4°F20.8°C 55.5°F13.1°C 61% Calm Calm -- 29.86 in1011.2 mb 0.00 in0.0 mm 0.00 in0.0 mm 0.00 in0.0 mm
03:10 AM 69.4°F20.8°C 55.5°F13.1°C 61% Calm Calm -- 29.86 in1011.2 mb 0.00 in0.0 mm 0.00 in0.0 mm 0.00 in0.0 mm
03:00 AM 69.4°F20.8°C 55.5°F13.1°C 61% Calm Calm 1.3 mph2.1 kmh 29.86 in1011.2 mb 0.00 in0.0 mm 0.00 in0.0 mm 0.00 in0.0 mm
02:50 AM 69.4°F20.8°C 55.5°F13.1°C 61% 1.3 mph SE2.1 kmh SE 1.3 mph2.1 kmh 29.86 in1011.2 mb 0.00 in0.0 mm 0.00 in0.0 mm 0.00 in0.0 mm
02:40 AM 69.4°F20.8°C 55.0°F12.8°C 60% Calm Calm -- 29.86 in1011.2 mb 0.00 in0.0 mm 0.00 in0.0 mm 0.00 in0.0 mm
02:30 AM 69.3°F20.7°C 54.9°F12.7°C 60% Calm Calm -- 29.86 in1011.2 mb 0.00 in0.0 mm 0.00 in0.0 mm 0.00 in0.0 mm
02:20 AM 68.9°F20.5°C 54.5°F12.5°C 60% Calm Calm -- 29.86 in1011.2 mb 0.00 in0.0 mm 0.00 in0.0 mm 0.00 in0.0 mm
02:10 AM 68.7°F20.4°C 54.3°F12.4°C 60% Calm Calm -- 29.86 in1011.2 mb 0.00 in0.0 mm 0.00 in0.0 mm 0.00 in0.0 mm
02:00 AM 68.5°F20.3°C 54.1°F12.3°C 60% Calm Calm -- 29.86 in1011.2 mb 0.00 in0.0 mm 0.00 in0.0 mm 0.00 in0.0 mm
01:50 AM 68.5°F20.3°C 54.1°F12.3°C 60% Calm Calm -- 29.87 in1011.5 mb 0.00 in0.0 mm 0.00 in0.0 mm 0.00 in0.0 mm
01:40 AM 68.4°F20.2°C 54.0°F12.2°C 60% Calm Calm 0.9 mph1.4 kmh 29.87 in1011.5 mb 0.00 in0.0 mm 0.00 in0.0 mm 0.00 in0.0 mm
01:30 AM 68.2°F20.1°C 53.8°F12.1°C 60% Calm Calm -- 29.87 in1011.5 mb 0.00 in0.0 mm 0.00 in0.0 mm 0.00 in0.0 mm
01:20 AM 68.2°F20.1°C 53.8°F12.1°C 60% Calm Calm -- 29.88 in1011.9 mb 0.00 in0.0 mm 0.00 in0.0 mm 0.00 in0.0 mm
01:10 AM 68.4°F20.2°C 54.0°F12.2°C 60% Calm Calm -- 29.88 in1011.9 mb 0.00 in0.0 mm 0.00 in0.0 mm 0.00 in0.0 mm
01:00 AM 68.4°F20.2°C 54.0°F12.2°C 60% Calm Calm 1.3 mph2.1 kmh 29.89 in1012.2 mb 0.00 in0.0 mm 0.00 in0.0 mm 0.00 in0.0 mm
12:50 AM 68.7°F20.4°C 53.8°F12.1°C 59% 1.3 mph E2.1 kmh E 1.3 mph2.1 kmh 29.89 in1012.2 mb 0.00 in0.0 mm 0.00 in0.0 mm 0.00 in0.0 mm
12:40 AM 68.7°F20.4°C 53.8°F12.1°C 59% Calm Calm 0.9 mph1.4 kmh 29.89 in1012.2 mb 0.00 in0.0 mm 0.00 in0.0 mm 0.00 in0.0 mm
12:30 AM 68.7°F20.4°C 53.8°F12.1°C 59% Calm Calm -- 29.89 in1012.2 mb 0.00 in0.0 mm 0.00 in0.0 mm 0.00 in0.0 mm
12:20 AM 68.7°F20.4°C 54.3°F12.4°C 60% Calm Calm -- 29.89 in1012.2 mb 0.00 in0.0 mm 0.00 in0.0 mm 0.00 in0.0 mm
12:10 AM 68.7°F20.4°C 53.8°F12.1°C 59% Calm Calm -- 29.90 in1012.5 mb 0.00 in0.0 mm 0.00 in0.0 mm 0.00 in0.0 mm
12:00 AM 69.1°F20.6°C 53.7°F12.1°C 58% Calm Calm -- 29.90 in1012.5 mb 0.00 in0.0 mm 0.00 in0.0 mm 0.00 in0.0 mm